Terminal Aerodrome Forecast
Issued by NWS Wakefield, VA

Home | Current Version | Previous Version | Text Only | Print | Product List | Glossary On
Versions: 1 2 3 4 5 6 7 8 9 10 11 12 13 14 15 16 17 18 19 20 21
382
FTUS41 KAKQ 272342
TAFORF
TAF
KORF 272342Z 2800/2824 21011KT P6SM SCT040 BKN250
     FM280600 22007KT P6SM BKN100
     FM281700 18008KT P6SM OVC080
     FM281800 17008KT 6SM SHRA OVC070
     FM282100 17008KT 6SM SHRA OVC025=

USA.gov is the U.S. government's official web portal to all federal, state and local government web resources and services.